sensor_id;sensor_type;location;lat;lon;timestamp;pressure;altitude;pressure_sealevel;temperature;humidity
8894;BME280;4483;48.622;9.230;2023-04-07T00:01:52;97898.84;;;7.78;86.52
8894;BME280;4483;48.622;9.230;2023-04-07T00:04:19;97893.72;;;7.78;87.40
8894;BME280;4483;48.622;9.230;2023-04-07T00:06:46;97889.31;;;7.83;87.63
8894;BME280;4483;48.622;9.230;2023-04-07T00:09:12;97891.69;;;7.89;88.15
8894;BME280;4483;48.622;9.230;2023-04-07T00:11:40;97893.25;;;7.93;88.01
8894;BME280;4483;48.622;9.230;2023-04-07T00:14:07;97894.97;;;7.94;88.07
8894;BME280;4483;48.622;9.230;2023-04-07T00:16:34;97895.75;;;7.96;88.27
8894;BME280;4483;48.622;9.230;2023-04-07T00:19:01;97903.34;;;7.99;88.20
8894;BME280;4483;48.622;9.230;2023-04-07T00:21:27;97899.94;;;8.00;88.29
8894;BME280;4483;48.622;9.230;2023-04-07T00:23:54;97889.66;;;8.00;88.73
8894;BME280;4483;48.622;9.230;2023-04-07T00:26:21;97889.56;;;8.03;88.64
8894;BME280;4483;48.622;9.230;2023-04-07T00:28:49;97891.22;;;8.04;88.94
8894;BME280;4483;48.622;9.230;2023-04-07T00:31:16;97887.03;;;8.01;89.60
8894;BME280;4483;48.622;9.230;2023-04-07T00:33:42;97881.06;;;8.01;89.94
8894;BME280;4483;48.622;9.230;2023-04-07T00:36:09;97883.59;;;8.02;90.15
8894;BME280;4483;48.622;9.230;2023-04-07T00:38:36;97878.50;;;8.01;90.64
8894;BME280;4483;48.622;9.230;2023-04-07T00:41:03;97876.84;;;8.00;90.86
8894;BME280;4483;48.622;9.230;2023-04-07T00:43:30;97870.06;;;7.97;91.13
8894;BME280;4483;48.622;9.230;2023-04-07T00:45:58;97870.09;;;7.96;91.14
8894;BME280;4483;48.622;9.230;2023-04-07T00:48:25;97873.59;;;7.93;91.69
8894;BME280;4483;48.622;9.230;2023-04-07T00:50:52;97869.41;;;7.91;92.12
8894;BME280;4483;48.622;9.230;2023-04-07T00:53:19;97865.09;;;7.91;92.08
8894;BME280;4483;48.622;9.230;2023-04-07T00:55:46;97857.56;;;7.87;92.75
8894;BME280;4483;48.622;9.230;2023-04-07T00:58:13;97858.47;;;7.84;92.84
8894;BME280;4483;48.622;9.230;2023-04-07T01:00:42;97855.97;;;7.83;93.02
8894;BME280;4483;48.622;9.230;2023-04-07T01:03:17;97844.03;;;7.82;93.69
8894;BME280;4483;48.622;9.230;2023-04-07T01:05:51;97842.28;;;7.82;93.77
8894;BME280;4483;48.622;9.230;2023-04-07T01:08:22;97844.03;;;7.82;94.27
8894;BME280;4483;48.622;9.230;2023-04-07T01:10:51;97838.91;;;7.82;94.63
8894;BME280;4483;48.622;9.230;2023-04-07T01:13:22;97832.94;;;7.81;94.84
8894;BME280;4483;48.622;9.230;2023-04-07T01:15:53;97823.53;;;7.82;94.93
8894;BME280;4483;48.622;9.230;2023-04-07T01:18:25;97821.81;;;7.81;95.35
8894;BME280;4483;48.622;9.230;2023-04-07T01:21:00;97826.94;;;7.81;95.41
8894;BME280;4483;48.622;9.230;2023-04-07T01:23:39;97826.09;;;7.80;95.40
8894;BME280;4483;48.622;9.230;2023-04-07T01:26:18;97812.47;;;7.78;95.69
8894;BME280;4483;48.622;9.230;2023-04-07T01:29:08;97814.28;;;7.76;96.06
8894;BME280;4483;48.622;9.230;2023-04-07T01:31:39;97813.44;;;7.76;96.14
8894;BME280;4483;48.622;9.230;2023-04-07T01:34:08;97816.88;;;7.75;96.48
8894;BME280;4483;48.622;9.230;2023-04-07T01:36:36;97812.63;;;7.74;96.53
8894;BME280;4483;48.622;9.230;2023-04-07T01:39:03;97813.50;;;7.73;96.58
8894;BME280;4483;48.622;9.230;2023-04-07T01:41:31;97804.19;;;7.70;96.75
8894;BME280;4483;48.622;9.230;2023-04-07T01:44:00;97812.81;;;7.68;96.77
8894;BME280;4483;48.622;9.230;2023-04-07T01:46:27;97809.50;;;7.64;96.82
8894;BME280;4483;48.622;9.230;2023-04-07T01:48:56;97807.09;;;7.60;97.07
8894;BME280;4483;48.622;9.230;2023-04-07T01:51:24;97812.97;;;7.62;97.32
8894;BME280;4483;48.622;9.230;2023-04-07T01:53:52;97808.75;;;7.61;97.21
8894;BME280;4483;48.622;9.230;2023-04-07T01:56:19;97807.09;;;7.60;97.73
8894;BME280;4483;48.622;9.230;2023-04-07T01:58:45;97805.34;;;7.60;97.73
8894;BME280;4483;48.622;9.230;2023-04-07T02:01:12;97801.97;;;7.60;97.89
8894;BME280;4483;48.622;9.230;2023-04-07T02:03:43;97800.16;;;7.62;98.58
8894;BME280;4483;48.622;9.230;2023-04-07T02:06:17;97791.59;;;7.63;98.33
8894;BME280;4483;48.622;9.230;2023-04-07T02:08:49;97795.81;;;7.64;98.56
8894;BME280;4483;48.622;9.230;2023-04-07T02:11:20;97798.38;;;7.64;98.60
8894;BME280;4483;48.622;9.230;2023-04-07T02:13:48;97789.09;;;7.61;98.71
8894;BME280;4483;48.622;9.230;2023-04-07T02:16:16;97793.38;;;7.61;98.93
8894;BME280;4483;48.622;9.230;2023-04-07T02:18:46;97796.84;;;7.58;98.94
8894;BME280;4483;48.622;9.230;2023-04-07T02:21:14;97792.72;;;7.54;99.27
8894;BME280;4483;48.622;9.230;2023-04-07T02:23:42;97783.28;;;7.55;99.76
8894;BME280;4483;48.622;9.230;2023-04-07T02:26:09;97783.38;;;7.52;99.41
8894;BME280;4483;48.622;9.230;2023-04-07T02:28:36;97792.72;;;7.54;99.69
8894;BME280;4483;48.622;9.230;2023-04-07T02:31:02;97781.50;;;7.57;100.00
8894;BME280;4483;48.622;9.230;2023-04-07T02:33:29;97779.84;;;7.56;100.00
8894;BME280;4483;48.622;9.230;2023-04-07T02:35:56;97776.38;;;7.57;100.00
8894;BME280;4483;48.622;9.230;2023-04-07T02:38:24;97784.06;;;7.57;100.00
8894;BME280;4483;48.622;9.230;2023-04-07T02:40:51;97778.09;;;7.58;100.00
8894;BME280;4483;48.622;9.230;2023-04-07T02:43:18;97773.13;;;7.52;100.00
8894;BME280;4483;48.622;9.230;2023-04-07T02:45:45;97776.59;;;7.49;100.00
8894;BME280;4483;48.622;9.230;2023-04-07T02:48:12;97773.31;;;7.46;100.00
8894;BME280;4483;48.622;9.230;2023-04-07T02:50:38;97771.63;;;7.45;100.00
8894;BME280;4483;48.622;9.230;2023-04-07T02:53:06;97769.94;;;7.44;100.00
8894;BME280;4483;48.622;9.230;2023-04-07T02:55:34;97764.88;;;7.42;100.00
8894;BME280;4483;48.622;9.230;2023-04-07T02:58:00;97764.81;;;7.44;100.00
8894;BME280;4483;48.622;9.230;2023-04-07T03:00:27;97764.00;;;7.43;100.00
8894;BME280;4483;48.622;9.230;2023-04-07T03:02:54;97757.84;;;7.49;100.00
8894;BME280;4483;48.622;9.230;2023-04-07T03:05:20;97752.72;;;7.49;100.00
8894;BME280;4483;48.622;9.230;2023-04-07T03:07:47;97750.19;;;7.47;100.00
8894;BME280;4483;48.622;9.230;2023-04-07T03:10:14;97746.00;;;7.45;100.00
8894;BME280;4483;48.622;9.230;2023-04-07T03:12:42;97743.44;;;7.45;100.00
8894;BME280;4483;48.622;9.230;2023-04-07T03:15:09;97744.28;;;7.45;100.00
8894;BME280;4483;48.622;9.230;2023-04-07T03:17:36;97741.72;;;7.45;100.00
8894;BME280;4483;48.622;9.230;2023-04-07T03:20:03;97739.13;;;7.47;100.00
8894;BME280;4483;48.622;9.230;2023-04-07T03:22:29;97748.56;;;7.45;100.00
8894;BME280;4483;48.622;9.230;2023-04-07T03:24:56;97740.09;;;7.43;100.00
8894;BME280;4483;48.622;9.230;2023-04-07T03:27:23;97740.13;;;7.41;100.00
8894;BME280;4483;48.622;9.230;2023-04-07T03:29:51;97737.56;;;7.41;100.00
8894;BME280;4483;48.622;9.230;2023-04-07T03:32:17;97729.94;;;7.40;100.00
8894;BME280;4483;48.622;9.230;2023-04-07T03:34:44;97735.06;;;7.40;100.00
8894;BME280;4483;48.622;9.230;2023-04-07T03:37:11;97726.53;;;7.39;100.00
8894;BME280;4483;48.622;9.230;2023-04-07T03:39:37;97731.66;;;7.39;100.00
8894;BME280;4483;48.622;9.230;2023-04-07T03:42:05;97736.78;;;7.39;100.00
8894;BME280;4483;48.622;9.230;2023-04-07T03:44:32;97724.81;;;7.40;100.00
8894;BME280;4483;48.622;9.230;2023-04-07T03:47:00;97718.03;;;7.37;100.00
8894;BME280;4483;48.622;9.230;2023-04-07T03:49:26;97728.13;;;7.42;100.00
8894;BME280;4483;48.622;9.230;2023-04-07T03:51:53;97723.91;;;7.41;100.00
8894;BME280;4483;48.622;9.230;2023-04-07T03:54:20;97728.13;;;7.42;100.00
8894;BME280;4483;48.622;9.230;2023-04-07T03:56:46;97730.69;;;7.42;100.00
8894;BME280;4483;48.622;9.230;2023-04-07T03:59:13;97723.00;;;7.43;100.00
8894;BME280;4483;48.622;9.230;2023-04-07T04:01:40;97722.88;;;7.46;100.00
8894;BME280;4483;48.622;9.230;2023-04-07T04:04:09;97720.38;;;7.45;100.00
8894;BME280;4483;48.622;9.230;2023-04-07T04:06:36;97725.56;;;7.42;100.00
8894;BME280;4483;48.622;9.230;2023-04-07T04:09:03;97723.91;;;7.41;100.00
8894;BME280;4483;48.622;9.230;2023-04-07T04:11:29;97715.41;;;7.39;100.00
8894;BME280;4483;48.622;9.230;2023-04-07T04:13:57;97710.41;;;7.36;100.00
8894;BME280;4483;48.622;9.230;2023-04-07T04:16:23;97713.00;;;7.34;100.00
8894;BME280;4483;48.622;9.230;2023-04-07T04:18:50;97708.75;;;7.33;100.00
8894;BME280;4483;48.622;9.230;2023-04-07T04:21:18;97703.69;;;7.32;100.00
8894;BME280;4483;48.622;9.230;2023-04-07T04:23:45;97709.66;;;7.32;100.00
8894;BME280;4483;48.622;9.230;2023-04-07T04:26:12;97708.81;;;7.32;100.00
8894;BME280;4483;48.622;9.230;2023-04-07T04:28:38;97699.47;;;7.29;100.00
8894;BME280;4483;48.622;9.230;2023-04-07T04:31:05;97702.94;;;7.28;100.00
8894;BME280;4483;48.622;9.230;2023-04-07T04:33:32;97705.56;;;7.27;100.00
8894;BME280;4483;48.622;9.230;2023-04-07T04:35:58;97702.13;;;7.26;100.00
8894;BME280;4483;48.622;9.230;2023-04-07T04:38:26;97697.06;;;7.25;100.00
8894;BME280;4483;48.622;9.230;2023-04-07T04:40:53;97702.25;;;7.23;100.00
8894;BME280;4483;48.622;9.230;2023-04-07T04:43:20;97702.25;;;7.22;100.00
8894;BME280;4483;48.622;9.230;2023-04-07T04:45:47;97705.72;;;7.21;100.00
8894;BME280;4483;48.622;9.230;2023-04-07T04:48:14;97705.72;;;7.21;100.00
8894;BME280;4483;48.622;9.230;2023-04-07T04:50:41;97704.00;;;7.21;100.00
8894;BME280;4483;48.622;9.230;2023-04-07T04:53:08;97708.22;;;7.22;100.00
8894;BME280;4483;48.622;9.230;2023-04-07T04:55:36;97707.31;;;7.25;100.00
8894;BME280;4483;48.622;9.230;2023-04-07T04:58:05;97712.44;;;7.25;100.00
8894;BME280;4483;48.622;9.230;2023-04-07T05:00:31;97712.44;;;7.25;100.00
8894;BME280;4483;48.622;9.230;2023-04-07T05:02:58;97708.16;;;7.25;100.00
8894;BME280;4483;48.622;9.230;2023-04-07T05:05:24;97719.31;;;7.23;100.00
8894;BME280;4483;48.622;9.230;2023-04-07T05:07:51;97707.47;;;7.19;100.00
8894;BME280;4483;48.622;9.230;2023-04-07T05:10:18;97712.59;;;7.19;100.00
8894;BME280;4483;48.622;9.230;2023-04-07T05:12:46;97713.50;;;7.18;100.00
8894;BME280;4483;48.622;9.230;2023-04-07T05:15:13;97716.06;;;7.18;100.00
8894;BME280;4483;48.622;9.230;2023-04-07T05:17:40;97713.63;;;7.13;100.00
8894;BME280;4483;48.622;9.230;2023-04-07T05:20:08;97719.66;;;7.12;100.00
8894;BME280;4483;48.622;9.230;2023-04-07T05:22:35;97717.09;;;7.10;100.00
8894;BME280;4483;48.622;9.230;2023-04-07T05:25:04;97717.03;;;7.13;100.00
8894;BME280;4483;48.622;9.230;2023-04-07T05:27:31;97719.50;;;7.17;100.00
8894;BME280;4483;48.622;9.230;2023-04-07T05:29:59;97721.19;;;7.18;100.00
8894;BME280;4483;48.622;9.230;2023-04-07T05:32:27;97717.72;;;7.19;100.00
8894;BME280;4483;48.622;9.230;2023-04-07T05:34:54;97721.09;;;7.21;100.00
8894;BME280;4483;48.622;9.230;2023-04-07T05:37:20;97722.75;;;7.22;100.00
8894;BME280;4483;48.622;9.230;2023-04-07T05:39:47;97723.66;;;7.21;100.00
8894;BME280;4483;48.622;9.230;2023-04-07T05:42:14;97721.00;;;7.24;100.00
8894;BME280;4483;48.622;9.230;2023-04-07T05:44:40;97717.56;;;7.25;100.00
8894;BME280;4483;48.622;9.230;2023-04-07T05:47:08;97718.44;;;7.24;100.00
8894;BME280;4483;48.622;9.230;2023-04-07T05:49:35;97712.50;;;7.22;100.00
8894;BME280;4483;48.622;9.230;2023-04-07T05:52:02;97711.75;;;7.20;100.00
8894;BME280;4483;48.622;9.230;2023-04-07T05:54:30;97707.44;;;7.20;100.00
8894;BME280;4483;48.622;9.230;2023-04-07T05:56:57;97707.31;;;7.25;100.00
8894;BME280;4483;48.622;9.230;2023-04-07T05:59:23;97710.56;;;7.30;100.00
8894;BME280;4483;48.622;9.230;2023-04-07T06:01:50;97718.22;;;7.31;100.00
8894;BME280;4483;48.622;9.230;2023-04-07T06:04:18;97719.06;;;7.32;100.00
8894;BME280;4483;48.622;9.230;2023-04-07T06:06:45;97719.84;;;7.34;100.00
8894;BME280;4483;48.622;9.230;2023-04-07T06:09:12;97722.41;;;7.34;100.00
8894;BME280;4483;48.622;9.230;2023-04-07T06:11:39;97723.25;;;7.34;100.00
8894;BME280;4483;48.622;9.230;2023-04-07T06:14:06;97730.06;;;7.35;100.00
8894;BME280;4483;48.622;9.230;2023-04-07T06:16:33;97724.03;;;7.36;100.00
8894;BME280;4483;48.622;9.230;2023-04-07T06:19:00;97722.25;;;7.40;100.00
8894;BME280;4483;48.622;9.230;2023-04-07T06:21:28;97723.81;;;7.44;100.00
8894;BME280;4483;48.622;9.230;2023-04-07T06:23:55;97720.28;;;7.48;100.00
8894;BME280;4483;48.622;9.230;2023-04-07T06:26:23;97721.84;;;7.52;100.00
8894;BME280;4483;48.622;9.230;2023-04-07T06:28:51;97726.88;;;7.55;100.00
8894;BME280;4483;48.622;9.230;2023-04-07T06:31:18;97725.03;;;7.60;100.00
8894;BME280;4483;48.622;9.230;2023-04-07T06:33:45;97728.28;;;7.65;100.00
8894;BME280;4483;48.622;9.230;2023-04-07T06:36:12;97720.50;;;7.68;100.00
8894;BME280;4483;48.622;9.230;2023-04-07T06:38:40;97723.00;;;7.69;100.00
8894;BME280;4483;48.622;9.230;2023-04-07T06:41:06;97724.66;;;7.72;100.00
8894;BME280;4483;48.622;9.230;2023-04-07T06:43:36;97728.84;;;7.74;100.00
8894;BME280;4483;48.622;9.230;2023-04-07T06:46:02;97724.47;;;7.78;100.00
8894;BME280;4483;48.622;9.230;2023-04-07T06:48:29;97720.06;;;7.81;100.00
8894;BME280;4483;48.622;9.230;2023-04-07T06:50:56;97724.22;;;7.85;100.00
8894;BME280;4483;48.622;9.230;2023-04-07T06:53:22;97718.16;;;7.88;100.00
8894;BME280;4483;48.622;9.230;2023-04-07T06:55:50;97720.53;;;7.94;100.00
8894;BME280;4483;48.622;9.230;2023-04-07T06:58:17;97721.16;;;8.00;100.00
8894;BME280;4483;48.622;9.230;2023-04-07T07:00:43;97715.03;;;8.04;100.00
8894;BME280;4483;48.622;9.230;2023-04-07T07:03:10;97708.00;;;8.11;100.00
8894;BME280;4483;48.622;9.230;2023-04-07T07:05:37;97712.03;;;8.18;100.00
8894;BME280;4483;48.622;9.230;2023-04-07T07:08:03;97707.59;;;8.23;100.00
8894;BME280;4483;48.622;9.230;2023-04-07T07:10:30;97705.63;;;8.31;100.00
8894;BME280;4483;48.622;9.230;2023-04-07T07:12:58;97707.09;;;8.38;100.00
8894;BME280;4483;48.622;9.230;2023-04-07T07:15:25;97707.66;;;8.46;100.00
8894;BME280;4483;48.622;9.230;2023-04-07T07:17:51;97716.88;;;8.53;100.00
8894;BME280;4483;48.622;9.230;2023-04-07T07:20:18;97714.13;;;8.58;100.00
8894;BME280;4483;48.622;9.230;2023-04-07T07:22:47;97719.06;;;8.64;100.00
8894;BME280;4483;48.622;9.230;2023-04-07T07:25:15;97716.41;;;8.65;100.00
8894;BME280;4483;48.622;9.230;2023-04-07T07:27:42;97719.78;;;8.67;100.00
8894;BME280;4483;48.622;9.230;2023-04-07T07:30:10;97723.13;;;8.69;100.00
8894;BME280;4483;48.622;9.230;2023-04-07T07:32:37;97717.94;;;8.71;99.92
8894;BME280;4483;48.622;9.230;2023-04-07T07:35:04;97724.47;;;8.79;100.00
8894;BME280;4483;48.622;9.230;2023-04-07T07:37:31;97715.56;;;8.89;100.00
8894;BME280;4483;48.622;9.230;2023-04-07T07:39:57;97717.63;;;9.03;99.65
8894;BME280;4483;48.622;9.230;2023-04-07T07:42:24;97718.84;;;9.16;98.91
8894;BME280;4483;48.622;9.230;2023-04-07T07:44:51;97716.66;;;9.29;98.34
8894;BME280;4483;48.622;9.230;2023-04-07T07:47:19;97719.44;;;9.46;97.82
8894;BME280;4483;48.622;9.230;2023-04-07T07:49:46;97721.44;;;9.61;97.11
8894;BME280;4483;48.622;9.230;2023-04-07T07:52:12;97724.16;;;9.78;96.26
8894;BME280;4483;48.622;9.230;2023-04-07T07:54:39;97719.28;;;9.93;95.60
8894;BME280;4483;48.622;9.230;2023-04-07T07:57:06;97721.00;;;10.14;95.22
8894;BME280;4483;48.622;9.230;2023-04-07T07:59:32;97714.03;;;10.38;94.87
8894;BME280;4483;48.622;9.230;2023-04-07T08:01:59;97718.06;;;10.64;94.20
8894;BME280;4483;48.622;9.230;2023-04-07T08:04:27;97718.53;;;10.92;92.56
8894;BME280;4483;48.622;9.230;2023-04-07T08:06:54;97712.16;;;11.19;90.49
8894;BME280;4483;48.622;9.230;2023-04-07T08:09:21;97712.59;;;11.66;89.94
8894;BME280;4483;48.622;9.230;2023-04-07T08:11:48;97707.09;;;12.43;88.09
8894;BME280;4483;48.622;9.230;2023-04-07T08:14:15;97706.84;;;12.97;84.96
8894;BME280;4483;48.622;9.230;2023-04-07T08:16:42;97708.75;;;13.27;80.94
8894;BME280;4483;48.622;9.230;2023-04-07T08:19:10;97709.69;;;13.41;79.55
8894;BME280;4483;48.622;9.230;2023-04-07T08:21:39;97712.56;;;13.68;78.27
8894;BME280;4483;48.622;9.230;2023-04-07T08:24:06;97712.50;;;14.30;78.10
8894;BME280;4483;48.622;9.230;2023-04-07T08:26:32;97711.19;;;14.81;75.41
8894;BME280;4483;48.622;9.230;2023-04-07T08:28:59;97710.53;;;15.48;71.03
8894;BME280;4483;48.622;9.230;2023-04-07T08:31:25;97703.75;;;16.00;66.51
8894;BME280;4483;48.622;9.230;2023-04-07T08:33:53;97707.97;;;16.15;67.80
8894;BME280;4483;48.622;9.230;2023-04-07T08:36:22;97707.06;;;16.41;66.51
8894;BME280;4483;48.622;9.230;2023-04-07T08:38:50;97704.75;;;16.88;65.44
8894;BME280;4483;48.622;9.230;2023-04-07T08:41:22;97704.28;;;17.57;63.71
8894;BME280;4483;48.622;9.230;2023-04-07T08:43:51;97701.41;;;18.09;61.17
8894;BME280;4483;48.622;9.230;2023-04-07T08:46:20;97705.63;;;18.57;59.10
8894;BME280;4483;48.622;9.230;2023-04-07T08:48:50;97702.03;;;18.93;55.70
8894;BME280;4483;48.622;9.230;2023-04-07T08:51:23;97702.66;;;19.30;55.39
8894;BME280;4483;48.622;9.230;2023-04-07T08:53:59;97697.22;;;19.33;54.30
8894;BME280;4483;48.622;9.230;2023-04-07T08:56:31;97698.22;;;19.30;52.84
8894;BME280;4483;48.622;9.230;2023-04-07T08:58:59;97696.22;;;19.67;52.50
8894;BME280;4483;48.622;9.230;2023-04-07T09:01:26;97701.94;;;20.03;52.04
8894;BME280;4483;48.622;9.230;2023-04-07T09:03:55;97713.44;;;19.69;51.19
8894;BME280;4483;48.622;9.230;2023-04-07T09:06:22;97711.41;;;19.18;50.45
8894;BME280;4483;48.622;9.230;2023-04-07T09:08:49;97709.19;;;19.24;51.03
8894;BME280;4483;48.622;9.230;2023-04-07T09:11:17;97709.59;;;18.74;49.82
8894;BME280;4483;48.622;9.230;2023-04-07T09:13:44;97707.00;;;18.16;50.50
8894;BME280;4483;48.622;9.230;2023-04-07T09:16:11;97717.59;;;17.65;51.13
8894;BME280;4483;48.622;9.230;2023-04-07T09:18:39;97719.13;;;17.19;51.45
8894;BME280;4483;48.622;9.230;2023-04-07T09:21:07;97709.44;;;16.71;51.97
8894;BME280;4483;48.622;9.230;2023-04-07T09:23:35;97717.84;;;16.49;52.64
8894;BME280;4483;48.622;9.230;2023-04-07T09:26:19;97718.19;;;16.31;53.11
8894;BME280;4483;48.622;9.230;2023-04-07T09:28:47;97714.56;;;16.33;53.40
8894;BME280;4483;48.622;9.230;2023-04-07T09:31:15;97708.41;;;16.61;53.31
8894;BME280;4483;48.622;9.230;2023-04-07T09:33:42;97708.00;;;16.92;52.54
8894;BME280;4483;48.622;9.230;2023-04-07T09:36:08;97704.00;;;17.24;52.52
8894;BME280;4483;48.622;9.230;2023-04-07T09:38:39;97710.72;;;17.64;52.25
8894;BME280;4483;48.622;9.230;2023-04-07T09:41:07;97708.94;;;18.01;51.52
8894;BME280;4483;48.622;9.230;2023-04-07T09:43:36;97702.06;;;18.24;50.59
8894;BME280;4483;48.622;9.230;2023-04-07T09:46:08;97699.56;;;18.33;49.77
8894;BME280;4483;48.622;9.230;2023-04-07T09:48:35;97698.28;;;18.51;49.70
8894;BME280;4483;48.622;9.230;2023-04-07T09:51:07;97698.06;;;18.65;48.88
8894;BME280;4483;48.622;9.230;2023-04-07T09:53:42;97698.31;;;18.73;48.37
8894;BME280;4483;48.622;9.230;2023-04-07T09:56:10;97689.91;;;18.81;48.42
8894;BME280;4483;48.622;9.230;2023-04-07T09:58:39;97696.66;;;18.83;45.40
8894;BME280;4483;48.622;9.230;2023-04-07T10:01:07;97696.06;;;18.69;46.00
8894;BME280;4483;48.622;9.230;2023-04-07T10:03:34;97691.97;;;18.54;45.35
8894;BME280;4483;48.622;9.230;2023-04-07T10:06:01;97694.03;;;18.38;46.81
8894;BME280;4483;48.622;9.230;2023-04-07T10:08:30;97687.25;;;18.35;46.68
8894;BME280;4483;48.622;9.230;2023-04-07T10:10:57;97689.66;;;18.38;46.43
8894;BME280;4483;48.622;9.230;2023-04-07T10:13:25;97678.59;;;18.24;46.58
8894;BME280;4483;48.622;9.230;2023-04-07T10:15:53;97688.84;;;18.14;46.83
8894;BME280;4483;48.622;9.230;2023-04-07T10:18:21;97683.88;;;18.11;46.78
8894;BME280;4483;48.622;9.230;2023-04-07T10:20:51;97680.06;;;18.15;46.86
8894;BME280;4483;48.622;9.230;2023-04-07T10:23:22;97690.28;;;18.18;47.50
8894;BME280;4483;48.622;9.230;2023-04-07T10:25:52;97682.03;;;18.35;47.38
8894;BME280;4483;48.622;9.230;2023-04-07T10:28:21;97689.50;;;18.52;47.87
8894;BME280;4483;48.622;9.230;2023-04-07T10:30:49;97683.13;;;18.67;46.80
8894;BME280;4483;48.622;9.230;2023-04-07T10:33:17;97683.16;;;18.89;46.52
8894;BME280;4483;48.622;9.230;2023-04-07T10:36:06;97689.91;;;19.03;46.23
8894;BME280;4483;48.622;9.230;2023-04-07T10:38:33;97680.06;;;19.06;45.83
8894;BME280;4483;48.622;9.230;2023-04-07T10:40:59;97678.66;;;19.02;44.86
8894;BME280;4483;48.622;9.230;2023-04-07T10:43:36;97684.91;;;18.78;44.16
8894;BME280;4483;48.622;9.230;2023-04-07T10:46:04;97683.72;;;18.71;43.39
8894;BME280;4483;48.622;9.230;2023-04-07T10:48:31;97675.72;;;18.50;43.17
8894;BME280;4483;48.622;9.230;2023-04-07T10:51:15;97682.50;;;18.29;44.28
8894;BME280;4483;48.622;9.230;2023-04-07T10:57:20;97683.78;;;18.47;43.68
8894;BME280;4483;48.622;9.230;2023-04-07T11:00:16;97686.91;;;18.63;44.75
8894;BME280;4483;48.622;9.230;2023-04-07T11:02:43;97688.34;;;18.67;45.18
8894;BME280;4483;48.622;9.230;2023-04-07T11:05:19;97687.41;;;18.79;45.26
8894;BME280;4483;48.622;9.230;2023-04-07T11:07:53;97690.28;;;18.87;44.72
8894;BME280;4483;48.622;9.230;2023-04-07T11:10:27;97688.59;;;18.86;44.64
8894;BME280;4483;48.622;9.230;2023-04-07T11:12:58;97684.47;;;18.84;45.29
8894;BME280;4483;48.622;9.230;2023-04-07T11:15:25;97694.53;;;18.77;45.36
8894;BME280;4483;48.622;9.230;2023-04-07T11:18:15;97690.19;;;18.43;44.04
8894;BME280;4483;48.622;9.230;2023-04-07T11:20:53;97714.81;;;17.92;44.82
8894;BME280;4483;48.622;9.230;2023-04-07T11:23:23;97712.66;;;17.37;45.20
8894;BME280;4483;48.622;9.230;2023-04-07T11:25:52;97709.97;;;16.88;46.10
8894;BME280;4483;48.622;9.230;2023-04-07T11:28:25;97712.44;;;16.52;46.16
8894;BME280;4483;48.622;9.230;2023-04-07T11:30:52;97713.81;;;16.31;46.91
8894;BME280;4483;48.622;9.230;2023-04-07T11:33:20;97715.75;;;16.15;47.17
8894;BME280;4483;48.622;9.230;2023-04-07T11:35:52;97725.84;;;15.93;47.05
8894;BME280;4483;48.622;9.230;2023-04-07T11:38:20;97719.13;;;15.76;47.44
8894;BME280;4483;48.622;9.230;2023-04-07T11:40:49;97721.25;;;15.70;47.70
8894;BME280;4483;48.622;9.230;2023-04-07T11:43:19;97720.63;;;15.66;47.78
8894;BME280;4483;48.622;9.230;2023-04-07T11:46:02;97724.59;;;15.72;47.88
8894;BME280;4483;48.622;9.230;2023-04-07T11:48:30;97736.84;;;15.70;48.29
8894;BME280;4483;48.622;9.230;2023-04-07T11:50:59;97739.16;;;15.74;48.86
8894;BME280;4483;48.622;9.230;2023-04-07T11:53:27;97738.31;;;15.74;48.71
8894;BME280;4483;48.622;9.230;2023-04-07T11:56:02;97732.13;;;15.76;48.88
8894;BME280;4483;48.622;9.230;2023-04-07T11:58:30;97738.69;;;15.68;47.87
8894;BME280;4483;48.622;9.230;2023-04-07T12:00:57;97731.75;;;15.68;48.58
8894;BME280;4483;48.622;9.230;2023-04-07T12:03:27;97734.78;;;15.75;48.73
8894;BME280;4483;48.622;9.230;2023-04-07T12:05:55;97739.44;;;15.84;49.13
8894;BME280;4483;48.622;9.230;2023-04-07T12:08:35;97738.84;;;15.93;49.18
8894;BME280;4483;48.622;9.230;2023-04-07T12:11:04;97736.47;;;16.02;49.29
8894;BME280;4483;48.622;9.230;2023-04-07T12:13:30;97745.38;;;16.13;49.89
8894;BME280;4483;48.622;9.230;2023-04-07T12:15:57;97741.81;;;16.13;49.69
8894;BME280;4483;48.622;9.230;2023-04-07T12:18:26;97739.53;;;16.09;49.38
8894;BME280;4483;48.622;9.230;2023-04-07T12:20:53;97740.31;;;15.97;49.81
8894;BME280;4483;48.622;9.230;2023-04-07T12:23:20;97748.69;;;15.88;50.17
8894;BME280;4483;48.622;9.230;2023-04-07T12:25:47;97755.28;;;15.79;50.59
8894;BME280;4483;48.622;9.230;2023-04-07T12:28:15;97752.63;;;15.67;51.58
8894;BME280;4483;48.622;9.230;2023-04-07T12:30:42;97757.34;;;15.60;51.89
8894;BME280;4483;48.622;9.230;2023-04-07T12:33:09;97762.47;;;15.48;52.15
8894;BME280;4483;48.622;9.230;2023-04-07T12:35:36;97766.66;;;15.36;53.04
8894;BME280;4483;48.622;9.230;2023-04-07T12:38:03;97766.16;;;15.30;53.00
8894;BME280;4483;48.622;9.230;2023-04-07T12:40:31;97768.94;;;15.27;54.49
8894;BME280;4483;48.622;9.230;2023-04-07T12:42:58;97762.63;;;15.17;54.26
8894;BME280;4483;48.622;9.230;2023-04-07T12:45:27;97764.56;;;15.13;54.93
8894;BME280;4483;48.622;9.230;2023-04-07T12:47:55;97763.19;;;15.07;55.42
8894;BME280;4483;48.622;9.230;2023-04-07T12:50:22;97763.94;;;15.09;55.83
8894;BME280;4483;48.622;9.230;2023-04-07T12:52:49;97756.88;;;15.11;55.39
8894;BME280;4483;48.622;9.230;2023-04-07T12:55:16;97757.28;;;15.20;55.79
8894;BME280;4483;48.622;9.230;2023-04-07T12:57:43;97754.03;;;15.30;56.56
8894;BME280;4483;48.622;9.230;2023-04-07T13:00:10;97760.59;;;15.36;56.90
8894;BME280;4483;48.622;9.230;2023-04-07T13:02:39;97761.44;;;15.36;57.31
8894;BME280;4483;48.622;9.230;2023-04-07T13:05:06;97762.56;;;15.32;57.04
8894;BME280;4483;48.622;9.230;2023-04-07T13:07:33;97768.94;;;15.27;57.78
8894;BME280;4483;48.622;9.230;2023-04-07T13:10:00;97767.47;;;15.23;58.01
8894;BME280;4483;48.622;9.230;2023-04-07T13:12:27;97767.00;;;15.30;58.62
8894;BME280;4483;48.622;9.230;2023-04-07T13:14:54;97762.91;;;15.40;58.71
8894;BME280;4483;48.622;9.230;2023-04-07T13:17:20;97760.63;;;15.50;58.91
8894;BME280;4483;48.622;9.230;2023-04-07T13:19:48;97757.47;;;15.59;57.96
8894;BME280;4483;48.622;9.230;2023-04-07T13:22:15;97757.47;;;15.73;58.62
8894;BME280;4483;48.622;9.230;2023-04-07T13:24:42;97754.81;;;15.87;58.15
8894;BME280;4483;48.622;9.230;2023-04-07T13:27:08;97748.31;;;15.94;57.66
8894;BME280;4483;48.622;9.230;2023-04-07T13:29:36;97747.19;;;15.98;57.19
8894;BME280;4483;48.622;9.230;2023-04-07T13:32:06;97746.66;;;15.93;57.16
8894;BME280;4483;48.622;9.230;2023-04-07T13:34:33;97744.97;;;15.92;57.60